| time (UTC) | temp C | wind direction | speed KPH | gust KPH | rain 1hr cm | rain 24hr cm | rain mn cm | humidity % | barometer mb |
| 20260906220420 | 35 | 130 | 9.7 | 12.9 | 0.00 | 0.03 | 0.03 | 22 | 1017.2 |
| 20260906215919 | 34 | 186 | 1.6 | 3.2 | 0.00 | 0.03 | 0.03 | 22 | 1017.6 |
| 20260906215414 | 35 | 183 | 19.3 | 22.5 | 0.00 | 0.03 | 0.03 | 22 | 1017.6 |
| 20260906214912 | 35 | 190 | 16.1 | 17.7 | 0.00 | 0.03 | 0.03 | 22 | 1017.7 |
| 20260906214411 | 34 | 243 | 8.0 | 9.7 | 0.00 | 0.03 | 0.03 | 22 | 1017.7 |
| 20260906213910 | 35 | 193 | 20.9 | 24.1 | 0.00 | 0.03 | 0.03 | 22 | 1017.8 |
| 20260906213405 | 35 | 222 | 12.9 | 14.5 | 0.00 | 0.03 | 0.03 | 22 | 1018.1 |
| 20260906212902 | 35 | 188 | 14.5 | 16.1 | 0.00 | 0.03 | 0.03 | 22 | 1018.0 |
| 20260906212358 | 35 | 166 | 14.5 | 22.5 | 0.00 | 0.03 | 0.03 | 22 | 1018.2 |
| 20260906211858 | 34 | 291 | 6.4 | 9.7 | 0.00 | 0.03 | 0.03 | 23 | 1017.7 |
| 20260906211353 | 34 | 246 | 14.5 | 16.1 | 0.00 | 0.03 | 0.03 | 24 | 1018.1 |
| 20260906210848 | 35 | 265 | 6.4 | 8.0 | 0.00 | 0.03 | 0.03 | 24 | 1018.1 |
| 20260906210343 | 34 | 177 | 11.3 | 12.9 | 0.00 | 0.03 | 0.03 | 23 | 1018.6 |
| 20260906205838 | 34 | 146 | 8.0 | 9.7 | 0.00 | 0.03 | 0.03 | 23 | 1018.2 |
| 20260906205334 | 33 | 177 | 16.1 | 24.1 | 0.00 | 0.03 | 0.03 | 23 | 1018.4 |
| 20260906204830 | 33 | 199 | 9.7 | 11.3 | 0.00 | 0.03 | 0.03 | 23 | 1018.4 |
| 20260906204329 | 34 | 225 | 12.9 | 14.5 | 0.00 | 0.03 | 0.03 | 23 | 1018.6 |
| 20260906203828 | 33 | 203 | 14.5 | 16.1 | 0.00 | 0.03 | 0.03 | 25 | 1018.7 |
| 20260906203324 | 33 | 235 | 17.7 | 20.9 | 0.00 | 0.03 | 0.03 | 25 | 1018.9 |
| 20260906202821 | 34 | 225 | 11.3 | 14.5 | 0.00 | 0.03 | 0.03 | 24 | 1018.8 |
| 20260906202320 | 33 | 179 | 19.3 | 24.1 | 0.00 | 0.03 | 0.03 | 25 | 1018.9 |
| 20260906201815 | 33 | 181 | 20.9 | 37.0 | 0.00 | 0.03 | 0.03 | 24 | 1019.0 |
| 20260906201314 | 33 | 225 | 4.8 | 4.8 | 0.00 | 0.03 | 0.03 | 26 | 1019.0 |
| 20260906200810 | 33 | 226 | 14.5 | 16.1 | 0.00 | 0.03 | 0.03 | 26 | 1019.3 |
| 20260906200306 | 33 | 153 | 14.5 | 17.7 | 0.00 | 0.03 | 0.03 | 25 | 1019.1 |
| 20260906195801 | 33 | 233 | 11.3 | 14.5 | 0.00 | 0.03 | 0.03 | 26 | 1019.1 |
| 20260906195257 | 32 | 311 | 4.8 | 8.0 | 0.00 | 0.03 | 0.03 | 27 | 1019.5 |
| 20260906194753 | 33 | 226 | 11.3 | 12.9 | 0.00 | 0.03 | 0.03 | 27 | 1019.6 |
| 20260906194249 | 33 | 240 | 27.4 | 32.2 | 0.00 | 0.03 | 0.03 | 27 | 1019.1 |
| 20260906193748 | 33 | 141 | 8.0 | 9.7 | 0.00 | 0.03 | 0.03 | 27 | 1019.4 |
| 20260906193244 | 32 | 235 | 4.8 | 4.8 | 0.00 | 0.03 | 0.03 | 28 | 1020.1 |
| 20260906192740 | 32 | 207 | 9.7 | 11.3 | 0.00 | 0.03 | 0.03 | 27 | 1019.8 |
| 20260906192240 | 32 | 267 | 11.3 | 12.9 | 0.00 | 0.03 | 0.03 | 28 | 1019.9 |
| 20260906191739 | 32 | 225 | 12.9 | 16.1 | 0.00 | 0.03 | 0.03 | 28 | 1020.1 |
| 20260906191233 | 33 | 236 | 9.7 | 11.3 | 0.00 | 0.03 | 0.03 | 27 | 1020.1 |
| 20260906190728 | 32 | 221 | 1.6 | 1.6 | 0.00 | 0.03 | 0.03 | 28 | 1020.2 |
| 20260906190222 | 32 | 258 | 11.3 | 11.3 | 0.00 | 0.03 | 0.03 | 28 | 1020.2 |
| 20260906185722 | 31 | 244 | 9.7 | 16.1 | 0.00 | 0.03 | 0.03 | 29 | 1020.3 |
| 20260906185221 | 31 | 288 | 8.0 | 11.3 | 0.00 | 0.03 | 0.03 | 31 | 1020.2 |
| 20260906184715 | 31 | 189 | 1.6 | 1.6 | 0.00 | 0.03 | 0.03 | 31 | 1020.3 |
| 20260906184211 | 32 | 182 | 8.0 | 9.7 | 0.00 | 0.03 | 0.03 | 31 | 1020.4 |
| 20260906183707 | 31 | 195 | 8.0 | 9.7 | 0.00 | 0.03 | 0.03 | 32 | 1020.5 |
| 20260906183203 | 31 | 157 | 9.7 | 11.3 | 0.00 | 0.03 | 0.03 | 31 | 1020.8 |
| 20260906182703 | 31 | 249 | 11.3 | 11.3 | 0.00 | 0.03 | 0.03 | 31 | 1020.5 |
| 20260906182158 | 31 | 202 | 12.9 | 14.5 | 0.00 | 0.03 | 0.03 | 31 | 1020.7 |
| 20260906181653 | 31 | 196 | 11.3 | 12.9 | 0.00 | 0.03 | 0.03 | 33 | 1020.8 |
| 20260906181149 | 31 | 196 | 3.2 | 3.2 | 0.00 | 0.03 | 0.03 | 33 | 1021.0 |
| 20260906180644 | 31 | 199 | 12.9 | 14.5 | 0.00 | 0.03 | 0.03 | 32 | 1021.1 |
| 20260906180139 | 30 | 124 | 4.8 | 4.8 | 0.00 | 0.03 | 0.03 | 34 | 1021.0 |
| 20260906175637 | 30 | 296 | 9.7 | 11.3 | 0.00 | 0.03 | 0.03 | 33 | 1021.2 |
| 20260906175132 | 30 | 275 | 8.0 | 9.7 | 0.00 | 0.03 | 0.03 | 34 | 1021.4 |
| 20260906174630 | 30 | 243 | 9.7 | 11.3 | 0.00 | 0.03 | 0.03 | 33 | 1021.5 |
| 20260906174126 | 31 | 247 | 11.3 | 14.5 | 0.00 | 0.03 | 0.03 | 33 | 1021.4 |
| 20260906173620 | 30 | 174 | 9.7 | 11.3 | 0.00 | 0.03 | 0.03 | 37 | 1021.5 |
| 20260906173115 | 30 | 203 | 19.3 | 22.5 | 0.00 | 0.03 | 0.03 | 36 | 1021.9 |
| 20260906172609 | 30 | 159 | 17.7 | 20.9 | 0.00 | 0.03 | 0.03 | 38 | 1021.9 |
| 20260906172106 | 30 | 170 | 6.4 | 8.0 | 0.00 | 0.03 | 0.03 | 39 | 1021.9 |
| 20260906171605 | 30 | 148 | 14.5 | 17.7 | 0.00 | 0.03 | 0.03 | 38 | 1022.0 |
| 20260906171101 | 29 | 188 | 14.5 | 16.1 | 0.00 | 0.03 | 0.03 | 39 | 1022.0 |
| 20260906170556 | 30 | 144 | 11.3 | 17.7 | 0.00 | 0.03 | 0.03 | 39 | 1022.1 |
| 20260906170055 | 29 | 180 | 11.3 | 14.5 | 0.00 | 0.03 | 0.03 | 40 | 1022.3 |
| 20260906165552 | 30 | 166 | 17.7 | 20.9 | 0.00 | 0.03 | 0.03 | 41 | 1022.0 |
| 20260906165047 | 29 | 168 | 9.7 | 12.9 | 0.00 | 0.03 | 0.03 | 40 | 1022.2 |
| 20260906164546 | 29 | 175 | 14.5 | 17.7 | 0.00 | 0.03 | 0.03 | 40 | 1022.1 |
| 20260906164042 | 28 | 200 | 9.7 | 12.9 | 0.00 | 0.03 | 0.03 | 44 | 1022.0 |
| 20260906163537 | 28 | 127 | 12.9 | 14.5 | 0.00 | 0.03 | 0.03 | 44 | 1022.4 |
| 20260906163033 | 28 | 156 | 17.7 | 17.7 | 0.00 | 0.03 | 0.03 | 46 | 1022.5 |
| 20260906162530 | 27 | 174 | 19.3 | 22.5 | 0.00 | 0.03 | 0.03 | 45 | 1022.3 |
| 20260906162025 | 27 | 174 | 20.9 | 24.1 | 0.00 | 0.03 | 0.03 | 46 | 1022.4 |
| 20260906161520 | 27 | 184 | 20.9 | 22.5 | 0.00 | 0.03 | 0.03 | 47 | 1022.3 |
| 20260906161019 | 27 | 159 | 11.3 | 16.1 | 0.00 | 0.03 | 0.03 | 47 | 1022.5 |
| 20260906160518 | 27 | 191 | 14.5 | 16.1 | 0.00 | 0.03 | 0.03 | 47 | 1022.8 |
| 20260906160017 | 26 | 197 | 19.3 | 25.7 | 0.00 | 0.03 | 0.03 | 49 | 1022.8 |
| 20260906155514 | 26 | 170 | 16.1 | 20.9 | 0.00 | 0.03 | 0.03 | 49 | 1022.4 |
| 20260906155011 | 26 | 160 | 17.7 | 20.9 | 0.00 | 0.03 | 0.03 | 50 | 1022.5 |
| 20260906154506 | 26 | 179 | 17.7 | 22.5 | 0.00 | 0.03 | 0.03 | 51 | 1022.7 |
| 20260906154004 | 26 | 168 | 25.7 | 27.4 | 0.00 | 0.03 | 0.03 | 50 | 1022.8 |
| 20260906153503 | 26 | 179 | 20.9 | 24.1 | 0.00 | 0.03 | 0.03 | 52 | 1022.9 |
| 20260906152959 | 25 | 183 | 19.3 | 22.5 | 0.00 | 0.03 | 0.03 | 53 | 1022.9 |
| 20260906152453 | 25 | 188 | 16.1 | 24.1 | 0.00 | 0.03 | 0.03 | 53 | 1023.1 |
| 20260906151952 | 25 | 166 | 19.3 | 24.1 | 0.00 | 0.03 | 0.03 | 54 | 1022.7 |
| 20260906151448 | 25 | 176 | 19.3 | 22.5 | 0.00 | 0.03 | 0.03 | 54 | 1022.9 |
| 20260906150944 | 25 | 172 | 19.3 | 22.5 | 0.00 | 0.03 | 0.03 | 55 | 1022.9 |
| 20260906150439 | 25 | 167 | 20.9 | 24.1 | 0.00 | 0.03 | 0.03 | 53 | 1023.0 |
| 20260906145938 | 25 | 170 | 14.5 | 16.1 | 0.00 | 0.03 | 0.03 | 53 | 1022.9 |
| 20260906145438 | 25 | 184 | 17.7 | 22.5 | 0.00 | 0.03 | 0.03 | 55 | 1022.9 |
| 20260906144932 | 24 | 160 | 16.1 | 17.7 | 0.00 | 0.03 | 0.03 | 56 | 1023.1 |
| 20260906144427 | 23 | 170 | 17.7 | 20.9 | 0.00 | 0.03 | 0.03 | 57 | 1022.9 |
| 20260906143922 | 24 | 164 | 19.3 | 22.5 | 0.00 | 0.03 | 0.03 | 57 | 1022.8 |
| 20260906143418 | 23 | 176 | 17.7 | 22.5 | 0.00 | 0.03 | 0.03 | 59 | 1022.9 |
| 20260906142914 | 23 | 184 | 17.7 | 17.7 | 0.00 | 0.03 | 0.03 | 60 | 1022.7 |
| 20260906142413 | 23 | 170 | 19.3 | 20.9 | 0.00 | 0.03 | 0.03 | 60 | 1023.0 |
| 20260906141908 | 22 | 207 | 17.7 | 20.9 | 0.00 | 0.03 | 0.03 | 62 | 1022.9 |
| 20260906141408 | 22 | 168 | 14.5 | 16.1 | 0.00 | 0.03 | 0.03 | 63 | 1022.8 |
| 20260906140902 | 21 | 208 | 14.5 | 17.7 | 0.00 | 0.03 | 0.03 | 65 | 1023.0 |
| 20260906140357 | 21 | 177 | 14.5 | 16.1 | 0.00 | 0.03 | 0.03 | 66 | 1022.8 |
| 20260906135855 | 21 | 162 | 9.7 | 11.3 | 0.00 | 0.03 | 0.03 | 67 | 1022.9 |
| 20260906135354 | 20 | 193 | 8.0 | 9.7 | 0.00 | 0.03 | 0.03 | 68 | 1022.7 |
| 20260906134850 | 20 | 186 | 6.4 | 8.0 | 0.00 | 0.03 | 0.03 | 71 | 1023.1 |
| 20260906134345 | 19 | 215 | 6.4 | 8.0 | 0.00 | 0.03 | 0.03 | 73 | 1022.8 |
| 20260906133840 | 18 | 190 | 4.8 | 4.8 | 0.00 | 0.03 | 0.03 | 74 | 1022.9 |
| 20260906133336 | 18 | 204 | 4.8 | 4.8 | 0.00 | 0.03 | 0.03 | 75 | 1022.8 |
| 20260906132831 | 18 | 224 | 6.4 | 8.0 | 0.00 | 0.03 | 0.03 | 76 | 1022.8 |
| 20260906132327 | 18 | 187 | 3.2 | 4.8 | 0.00 | 0.03 | 0.03 | 77 | 1022.8 |
| 20260906131822 | 17 | 208 | 4.8 | 4.8 | 0.00 | 0.03 | 0.03 | 77 | 1022.8 |
| 20260906131317 | 17 | 198 | 4.8 | 4.8 | 0.00 | 0.03 | 0.03 | 77 | 1022.8 |
| 20260906130813 | 17 | 190 | 4.8 | 4.8 | 0.00 | 0.03 | 0.03 | 78 | 1022.8 |
| 20260906130313 | 17 | 219 | 6.4 | 8.0 | 0.00 | 0.03 | 0.03 | 79 | 1022.8 |
| 20260906125812 | 17 | 178 | 3.2 | 3.2 | 0.00 | 0.03 | 0.03 | 78 | 1022.7 |
| 20260906125309 | 17 | 160 | 1.6 | 1.6 | 0.00 | 0.03 | 0.03 | 78 | 1022.7 |
| 20260906124804 | 17 | 187 | 4.8 | 4.8 | 0.00 | 0.03 | 0.03 | 78 | 1022.9 |
| 20260906124300 | 17 | 157 | 1.6 | 3.2 | 0.00 | 0.03 | 0.03 | 78 | 1022.7 |
| 20260906123759 | 17 | 132 | 1.6 | 1.6 | 0.00 | 0.03 | 0.03 | 78 | 1022.7 |
| 20260906123254 | 17 | 104 | 1.6 | 1.6 | 0.00 | 0.03 | 0.03 | 77 | 1022.7 |
| 20260906122754 | 17 | 109 | 3.2 | 3.2 | 0.00 | 0.03 | 0.03 | 78 | 1022.9 |
| 20260906122249 | 17 | 51 | 1.6 | 3.2 | 0.00 | 0.03 | 0.03 | 79 | 1022.7 |
| 20260906121745 | 17 | 161 | 0.0 | 0.0 | 0.00 | 0.03 | 0.03 | 78 | 1022.8 |
| 20260906121242 | 16 | 181 | 0.0 | 1.6 | 0.00 | 0.03 | 0.03 | 78 | 1022.5 |
| 20260906120737 | 17 | 181 | 1.6 | 1.6 | 0.00 | 0.03 | 0.03 | 77 | 1022.8 |
| 20260906120234 | 17 | 177 | 4.8 | 4.8 | 0.00 | 0.03 | 0.03 | 77 | 1022.5 |
| 20260906115729 | 17 | 204 | 4.8 | 8.0 | 0.00 | 0.03 | 0.03 | 77 | 1022.5 |
| 20260906115224 | 17 | 199 | 3.2 | 3.2 | 0.00 | 0.03 | 0.03 | 77 | 1022.7 |
| 20260906114723 | 17 | 240 | 3.2 | 3.2 | 0.00 | 0.03 | 0.03 | 77 | 1022.4 |
| 20260906114219 | 17 | 266 | 1.6 | 1.6 | 0.00 | 0.03 | 0.03 | 76 | 1022.5 |
| 20260906113714 | 18 | 278 | 3.2 | 3.2 | 0.00 | 0.03 | 0.03 | 75 | 1022.7 |
| 20260906113213 | 18 | 276 | 1.6 | 1.6 | 0.00 | 0.03 | 0.03 | 75 | 1022.8 |
| 20260906112712 | 18 | 259 | 3.2 | 3.2 | 0.00 | 0.03 | 0.03 | 75 | 1022.9 |
| 20260906112204 | 18 | 236 | 3.2 | 3.2 | 0.00 | 0.03 | 0.03 | 75 | 1022.4 |
| 20260906111703 | 18 | 245 | 3.2 | 4.8 | 0.00 | 0.03 | 0.03 | 75 | 1022.4 |
| 20260906111157 | 18 | 278 | 1.6 | 3.2 | 0.00 | 0.03 | 0.03 | 74 | 1022.3 |
| 20260906110653 | 18 | 164 | 3.2 | 3.2 | 0.00 | 0.03 | 0.03 | 73 | 1022.7 |
| 20260906110148 | 18 | 11 | 1.6 | 1.6 | 0.00 | 0.03 | 0.03 | 74 | 1022.5 |
| 20260906105642 | 18 | 33 | 0.0 | 1.6 | 0.00 | 0.03 | 0.03 | 74 | 1022.5 |
| 20260906105138 | 18 | 25 | 4.8 | 4.8 | 0.00 | 0.03 | 0.03 | 73 | 1022.7 |
| 20260906104638 | 19 | 24 | 1.6 | 1.6 | 0.00 | 0.03 | 0.03 | 72 | 1022.7 |
| 20260906104137 | 20 | 71 | 3.2 | 3.2 | 0.00 | 0.03 | 0.03 | 70 | 1022.4 |
| 20260906103635 | 20 | 147 | 9.7 | 11.3 | 0.00 | 0.03 | 0.03 | 69 | 1022.5 |
| 20260906103130 | 20 | 145 | 9.7 | 14.5 | 0.00 | 0.03 | 0.03 | 69 | 1022.3 |
| 20260906102625 | 20 | 163 | 12.9 | 16.1 | 0.00 | 0.03 | 0.03 | 69 | 1022.5 |
| 20260906102120 | 20 | 134 | 11.3 | 12.9 | 0.00 | 0.03 | 0.03 | 69 | 1022.0 |
| 20260906101614 | 20 | 173 | 14.5 | 17.7 | 0.00 | 0.03 | 0.03 | 68 | 1022.1 |
| 20260906101109 | 20 | 164 | 17.7 | 20.9 | 0.00 | 0.03 | 0.03 | 69 | 1022.2 |
| 20260906100605 | 20 | 161 | 14.5 | 17.7 | 0.00 | 0.03 | 0.03 | 68 | 1021.9 |
| 20260906100105 | 20 | 148 | 12.9 | 14.5 | 0.00 | 0.03 | 0.03 | 69 | 1022.1 |
| 20260906095604 | 20 | 154 | 19.3 | 22.5 | 0.00 | 0.03 | 0.03 | 68 | 1021.9 |
| 20260906095100 | 20 | 152 | 17.7 | 20.9 | 0.00 | 0.03 | 0.03 | 68 | 1022.1 |
| 20260906094559 | 20 | 159 | 12.9 | 14.5 | 0.00 | 0.03 | 0.03 | 68 | 1022.2 |
| 20260906094055 | 20 | 160 | 14.5 | 16.1 | 0.00 | 0.03 | 0.03 | 68 | 1022.1 |
| 20260906093550 | 21 | 162 | 20.9 | 22.5 | 0.00 | 0.03 | 0.03 | 68 | 1022.2 |
| 20260906093045 | 21 | 158 | 22.5 | 25.7 | 0.18 | 0.03 | 0.03 | 68 | 1022.1 |
| 20260906092540 | 20 | 152 | 12.9 | 14.5 | 0.18 | 0.03 | 0.03 | 70 | 1021.9 |
| 20260906092035 | 21 | 175 | 17.7 | 24.1 | 0.00 | 0.00 | 0.00 | 67 | 1022.5 |
| 20260906091531 | 21 | 168 | 19.3 | 20.9 | 0.00 | 0.00 | 0.00 | 65 | 1022.1 |
| 20260906091027 | 21 | 169 | 20.9 | 24.1 | 0.00 | 0.00 | 0.00 | 65 | 1022.1 |
| 20260906090522 | 21 | 157 | 17.7 | 20.9 | 0.00 | 0.00 | 0.00 | 65 | 1021.9 |
| 20260906090017 | 21 | 171 | 17.7 | 22.5 | 0.00 | 0.00 | 0.00 | 64 | 1022.1 |
| 20260906085516 | 22 | 149 | 19.3 | 24.1 | 0.00 | 0.00 | 0.00 | 64 | 1022.1 |
| 20260906085015 | 21 | 152 | 12.9 | 16.1 | 0.00 | 0.00 | 0.00 | 63 | 1022.0 |
| 20260906084510 | 21 | 159 | 14.5 | 14.5 | 0.00 | 0.00 | 0.00 | 63 | 1022.0 |
| 20260906084009 | 21 | 138 | 11.3 | 12.9 | 0.00 | 0.00 | 0.00 | 62 | 1022.0 |
| 20260906083505 | 21 | 139 | 9.7 | 11.3 | 0.00 | 0.00 | 0.00 | 62 | 1022.2 |
| 20260906083004 | 21 | 144 | 6.4 | 8.0 | 0.00 | 0.00 | 0.00 | 61 | 1022.1 |
| 20260906082459 | 21 | 154 | 9.7 | 11.3 | 0.00 | 0.00 | 0.00 | 61 | 1022.3 |
| 20260906081955 | 21 | 136 | 8.0 | 9.7 | 0.00 | 0.00 | 0.00 | 61 | 1022.1 |
| 20260906081450 | 21 | 135 | 4.8 | 4.8 | 0.00 | 0.00 | 0.00 | 61 | 1022.0 |
| 20260906080946 | 20 | 143 | 8.0 | 8.0 | 0.00 | 0.00 | 0.00 | 63 | 1022.2 |
| 20260906080442 | 20 | 126 | 1.6 | 1.6 | 0.00 | 0.00 | 0.00 | 62 | 1022.5 |
| 20260906075937 | 20 | 129 | 1.6 | 3.2 | 0.00 | 0.00 | 0.00 | 63 | 1022.2 |
| 20260906075431 | 20 | 82 | 1.6 | 1.6 | 0.00 | 0.00 | 0.00 | 63 | 1022.2 |
| 20260906074927 | 20 | 70 | 0.0 | 0.0 | 0.00 | 0.00 | 0.00 | 62 | 1022.3 |
| 20260906074421 | 20 | 41 | 3.2 | 3.2 | 0.00 | 0.00 | 0.00 | 62 | 1022.5 |
| 20260906073920 | 21 | 73 | 4.8 | 4.8 | 0.00 | 0.00 | 0.00 | 60 | 1022.4 |
| 20260906073415 | 21 | 204 | 3.2 | 3.2 | 0.00 | 0.00 | 0.00 | 59 | 1022.5 |
| 20260906072911 | 21 | 41 | 4.8 | 4.8 | 0.00 | 0.00 | 0.00 | 59 | 1022.3 |
| 20260906072406 | 20 | 320 | 4.8 | 4.8 | 0.00 | 0.00 | 0.00 | 62 | 1022.4 |
| 20260906071902 | 20 | 29 | 3.2 | 3.2 | 0.00 | 0.00 | 0.00 | 59 | 1022.4 |
| 20260906071357 | 20 | 94 | 0.0 | 0.0 | 0.00 | 0.00 | 0.00 | 59 | 1022.5 |
| 20260906070853 | 20 | 83 | 1.6 | 3.2 | 0.00 | 0.00 | 0.00 | 58 | 1022.5 |
| 20260906070349 | 21 | 103 | 0.0 | 0.0 | 0.00 | 0.00 | 0.00 | 57 | 1022.5 |
| 20260906065844 | 21 | 92 | 3.2 | 3.2 | 0.00 | 0.00 | 0.00 | 53 | 1022.5 |
| 20260906065339 | 21 | 179 | 1.6 | 1.6 | 0.00 | 0.00 | 0.00 | 56 | 1022.4 |
| 20260906064834 | 21 | 233 | 1.6 | 3.2 | 0.00 | 0.00 | 0.00 | 56 | 1022.3 |
| 20260906064330 | 21 | 155 | 1.6 | 3.2 | 0.00 | 0.00 | 0.00 | 54 | 1022.7 |
| 20260906063824 | 22 | 172 | 4.8 | 4.8 | 0.00 | 0.00 | 0.00 | 53 | 1022.4 |
| 20260906063320 | 21 | 133 | 1.6 | 3.2 | 0.00 | 0.00 | 0.00 | 52 | 1022.4 |
| 20260906062815 | 21 | 119 | 0.0 | 1.6 | 0.00 | 0.00 | 0.00 | 49 | 1022.5 |
| 20260906062314 | 20 | 85 | 1.6 | 1.6 | 0.00 | 0.00 | 0.00 | 49 | 1022.9 |
| 20260906061810 | 20 | 71 | 0.0 | 1.6 | 0.00 | 0.00 | 0.00 | 47 | 1022.8 |
| 20260906061306 | 20 | 118 | 0.0 | 0.0 | 0.00 | 0.00 | 0.00 | 48 | 1022.8 |
| 20260906060801 | 20 | 118 | 0.0 | 1.6 | 0.00 | 0.00 | 0.00 | 44 | 1023.2 |
| 20260906060259 | 19 | 69 | 1.6 | 1.6 | 0.00 | 0.00 | 0.00 | 47 | 1023.0 |
| 20260906055754 | 18 | 63 | 1.6 | 1.6 | 0.00 | 0.00 | 0.00 | 45 | 1023.0 |
| 20260906055249 | 18 | 213 | 0.0 | 0.0 | 0.00 | 0.00 | 0.00 | 45 | 1023.0 |
| 20260906054744 | 18 | 215 | 1.6 | 1.6 | 0.00 | 0.00 | 0.00 | 45 | 1023.0 |
| 20260906054240 | 18 | 177 | 1.6 | 1.6 | 0.00 | 0.00 | 0.00 | 45 | 1022.9 |
| 20260906053737 | 18 | 167 | 3.2 | 3.2 | 0.00 | 0.00 | 0.00 | 45 | 1022.8 |
| 20260906053232 | 18 | 65 | 0.0 | 1.6 | 0.00 | 0.00 | 0.00 | 43 | 1022.7 |
| 20260906052727 | 18 | 108 | 1.6 | 1.6 | 0.00 | 0.00 | 0.00 | 43 | 1022.9 |
| 20260906052223 | 18 | 136 | 0.0 | 0.0 | 0.00 | 0.00 | 0.00 | 43 | 1023.0 |
| 20260906051720 | 18 | 248 | 0.0 | 0.0 | 0.00 | 0.00 | 0.00 | 43 | 1022.9 |
| 20260906051219 | 19 | 221 | 3.2 | 3.2 | 0.00 | 0.00 | 0.00 | 41 | 1022.8 |
| 20260906050714 | 18 | 151 | 0.0 | 0.0 | 0.00 | 0.00 | 0.00 | 41 | 1022.8 |
| 20260906050210 | 18 | 206 | 0.0 | 1.6 | 0.00 | 0.00 | 0.00 | 41 | 1022.9 |
| 20260906045708 | 18 | 45 | 1.6 | 3.2 | 0.00 | 0.00 | 0.00 | 41 | 1022.7 |
| 20260906045203 | 18 | 198 | 1.6 | 3.2 | 0.00 | 0.00 | 0.00 | 42 | 1023.0 |
| 20260906044659 | 18 | 119 | 0.0 | 0.0 | 0.00 | 0.00 | 0.00 | 43 | 1022.8 |
| 20260906044154 | 18 | 120 | 1.6 | 1.6 | 0.00 | 0.00 | 0.00 | 41 | 1023.0 |
| 20260906043650 | 19 | 200 | 1.6 | 3.2 | 0.00 | 0.00 | 0.00 | 43 | 1022.7 |
| 20260906043146 | 19 | 54 | 0.0 | 0.0 | 0.00 | 0.00 | 0.00 | 43 | 1022.9 |
| 20260906042645 | 20 | 53 | 1.6 | 1.6 | 0.00 | 0.00 | 0.00 | 42 | 1022.9 |
| 20260906042139 | 20 | 53 | 1.6 | 1.6 | 0.00 | 0.00 | 0.00 | 41 | 1022.9 |
| 20260906041635 | 20 | 215 | 4.8 | 4.8 | 0.00 | 0.00 | 0.00 | 42 | 1022.7 |
| 20260906041130 | 20 | 73 | 1.6 | 3.2 | 0.00 | 0.00 | 0.00 | 41 | 1022.4 |
| 20260906040625 | 20 | 180 | 0.0 | 0.0 | 0.00 | 0.00 | 0.00 | 41 | 1022.4 |
| 20260906040121 | 20 | 200 | 3.2 | 3.2 | 0.00 | 0.00 | 0.00 | 40 | 1022.7 |
| 20260906035616 | 21 | 42 | 1.6 | 3.2 | 0.00 | 0.00 | 0.00 | 39 | 1022.8 |
| 20260906035111 | 22 | 42 | 0.0 | 0.0 | 0.00 | 0.00 | 0.00 | 35 | 1022.7 |
| 20260906034606 | 22 | 42 | 1.6 | 1.6 | 0.00 | 0.00 | 0.00 | 35 | 1022.5 |
| 20260906034101 | 21 | 42 | 1.6 | 1.6 | 0.00 | 0.00 | 0.00 | 36 | 1022.7 |
| 20260906033556 | 21 | 42 | 0.0 | 0.0 | 0.00 | 0.00 | 0.00 | 39 | 1022.5 |
| 20260906033051 | 23 | 50 | 1.6 | 1.6 | 0.00 | 0.00 | 0.00 | 36 | 1022.4 |
| 20260906032548 | 22 | 74 | 1.6 | 1.6 | 0.00 | 0.00 | 0.00 | 37 | 1022.4 |
| 20260906032048 | 24 | 55 | 1.6 | 1.6 | 0.00 | 0.00 | 0.00 | 35 | 1022.4 |
| 20260906031543 | 23 | 12 | 4.8 | 4.8 | 0.00 | 0.00 | 0.00 | 35 | 1022.4 |
| 20260906031039 | 23 | 55 | 1.6 | 1.6 | 0.00 | 0.00 | 0.00 | 35 | 1022.5 |
| 20260906030538 | 23 | 50 | 1.6 | 3.2 | 0.00 | 0.00 | 0.00 | 34 | 1022.1 |
| 20260906030037 | 24 | 41 | 1.6 | 1.6 | 0.00 | 0.00 | 0.00 | 33 | 1022.3 |
| 20260906025532 | 24 | 54 | 4.8 | 4.8 | 0.00 | 0.00 | 0.00 | 32 | 1022.2 |
| 20260906025030 | 23 | 148 | 4.8 | 4.8 | 0.00 | 0.00 | 0.00 | 32 | 1022.3 |
| 20260906024525 | 23 | 147 | 3.2 | 3.2 | 0.00 | 0.00 | 0.00 | 31 | 1022.3 |
| 20260906024020 | 24 | 47 | 1.6 | 1.6 | 0.00 | 0.00 | 0.00 | 31 | 1021.8 |
| 20260906023516 | 24 | 35 | 1.6 | 1.6 | 0.00 | 0.00 | 0.00 | 31 | 1021.5 |
| 20260906023011 | 25 | 9 | 4.8 | 4.8 | 0.00 | 0.00 | 0.00 | 30 | 1021.4 |
| 20260906022506 | 25 | 20 | 3.2 | 3.2 | 0.00 | 0.00 | 0.00 | 30 | 1021.5 |
| 20260906022001 | 25 | 10 | 4.8 | 4.8 | 0.00 | 0.00 | 0.00 | 29 | 1021.2 |
| 20260906021456 | 25 | 15 | 3.2 | 3.2 | 0.00 | 0.00 | 0.00 | 29 | 1021.3 |
| 20260906020951 | 25 | 5 | 4.8 | 4.8 | 0.00 | 0.00 | 0.00 | 29 | 1021.3 |
| 20260906020444 | 26 | 18 | 4.8 | 4.8 | 0.00 | 0.00 | 0.00 | 29 | 1021.2 |
| 20260906015938 | 26 | 8 | 3.2 | 3.2 | 0.00 | 0.00 | 0.00 | 28 | 1021.1 |
| 20260906015433 | 27 | 7 | 4.8 | 4.8 | 0.00 | 0.00 | 0.00 | 27 | 1020.8 |
| 20260906014933 | 27 | 30 | 3.2 | 3.2 | 0.00 | 0.00 | 0.00 | 27 | 1021.1 |
| 20260906014432 | 27 | 28 | 4.8 | 4.8 | 0.00 | 0.00 | 0.00 | 26 | 1020.8 |
| 20260906013929 | 28 | 49 | 3.2 | 3.2 | 0.00 | 0.00 | 0.00 | 26 | 1021.1 |
| 20260906013424 | 28 | 35 | 3.2 | 3.2 | 0.00 | 0.00 | 0.00 | 25 | 1020.8 |
| 20260906012920 | 28 | 48 | 4.8 | 4.8 | 0.00 | 0.00 | 0.00 | 25 | 1021.0 |
| 20260906012420 | 28 | 47 | 3.2 | 3.2 | 0.00 | 0.00 | 0.00 | 25 | 1021.1 |
| 20260906011919 | 29 | 35 | 4.8 | 4.8 | 0.00 | 0.00 | 0.00 | 24 | 1021.1 |
| 20260906011414 | 30 | 44 | 4.8 | 8.0 | 0.00 | 0.00 | 0.00 | 24 | 1021.0 |
| 20260906010909 | 30 | 45 | 4.8 | 4.8 | 0.00 | 0.00 | 0.00 | 23 | 1021.0 |
| 20260906010405 | 30 | 20 | 8.0 | 14.5 | 0.00 | 0.00 | 0.00 | 23 | 1020.8 |
| 20260906005901 | 31 | 62 | 6.4 | 8.0 | 0.00 | 0.00 | 0.00 | 23 | 1020.8 |
| 20260906005400 | 31 | 31 | 8.0 | 11.3 | 0.00 | 0.00 | 0.00 | 22 | 1021.0 |
| 20260906004859 | 31 | 47 | 8.0 | 11.3 | 0.00 | 0.00 | 0.00 | 22 | 1020.8 |
| 20260906004353 | 31 | 32 | 11.3 | 12.9 | 0.00 | 0.00 | 0.00 | 21 | 1021.0 |
| 20260906003849 | 31 | 59 | 3.2 | 3.2 | 0.00 | 0.00 | 0.00 | 22 | 1020.8 |
| 20260906003344 | 31 | 34 | 8.0 | 9.7 | 0.00 | 0.00 | 0.00 | 21 | 1020.7 |
| 20260906002840 | 32 | 46 | 11.3 | 12.9 | 0.00 | 0.00 | 0.00 | 21 | 1020.6 |
| 20260906002339 | 32 | 60 | 8.0 | 9.7 | 0.00 | 0.00 | 0.00 | 21 | 1020.8 |
| 20260906001835 | 32 | 47 | 3.2 | 4.8 | 0.00 | 0.00 | 0.00 | 20 | 1021.0 |
| 20260906001330 | 32 | 39 | 4.8 | 4.8 | 0.00 | 0.00 | 0.00 | 21 | 1020.6 |
| 20260906000825 | 32 | 47 | 4.8 | 4.8 | 0.00 | 0.00 | 0.00 | 20 | 1021.0 |
| 20260906000320 | 32 | 18 | 3.2 | 3.2 | 0.00 | 0.00 | 0.00 | 21 | 1020.7 |
| 20260905235819 | 32 | 343 | 6.4 | 9.7 | 0.00 | 0.00 | 0.00 | 20 | 1020.7 |
| 20260905235314 | 32 | 33 | 3.2 | 3.2 | 0.00 | 0.00 | 0.00 | 20 | 1020.7 |
| 20260905234810 | 32 | 48 | 4.8 | 4.8 | 0.00 | 0.00 | 0.00 | 20 | 1020.7 |
| 20260905234305 | 32 | 62 | 6.4 | 8.0 | 0.00 | 0.00 | 0.00 | 20 | 1020.8 |
| 20260905233759 | 33 | 19 | 6.4 | 8.0 | 0.00 | 0.00 | 0.00 | 20 | 1020.7 |
| 20260905233254 | 33 | 33 | 6.4 | 8.0 | 0.00 | 0.00 | 0.00 | 20 | 1020.4 |
| 20260905232753 | 33 | 195 | 6.4 | 8.0 | 0.00 | 0.00 | 0.00 | 20 | 1020.6 |
| 20260905232249 | 33 | 223 | 4.8 | 8.0 | 0.00 | 0.00 | 0.00 | 20 | 1020.4 |
| 20260905231745 | 33 | 252 | 8.0 | 12.9 | 0.00 | 0.00 | 0.00 | 20 | 1020.5 |
| 20260905231240 | 32 | 211 | 6.4 | 8.0 | 0.00 | 0.00 | 0.00 | 20 | 1020.5 |
| 20260905230737 | 32 | 230 | 11.3 | 12.9 | 0.00 | 0.00 | 0.00 | 20 | 1020.4 |
| 20260905230234 | 33 | 258 | 6.4 | 9.7 | 0.00 | 0.00 | 0.00 | 20 | 1020.5 |
| 20260905225734 | 33 | 227 | 4.8 | 8.0 | 0.00 | 0.00 | 0.00 | 20 | 1020.4 |
| 20260905225229 | 34 | 161 | 1.6 | 3.2 | 0.00 | 0.00 | 0.00 | 19 | 1020.4 |
| 20260905224728 | 35 | 8 | 3.2 | 3.2 | 0.00 | 0.00 | 0.00 | 19 | 1020.4 |
| 20260905224224 | 35 | 44 | 0.0 | 0.0 | 0.00 | 0.00 | 0.00 | 19 | 1020.5 |
| 20260905223720 | 33 | 35 | 1.6 | 3.2 | 0.00 | 0.00 | 0.00 | 19 | 1020.4 |
| 20260905223217 | 33 | 241 | 3.2 | 3.2 | 0.00 | 0.00 | 0.00 | 19 | 1020.6 |
| 20260905222712 | 33 | 145 | 1.6 | 3.2 | 0.00 | 0.00 | 0.00 | 19 | 1020.3 |
| 20260905222211 | 33 | 321 | 1.6 | 3.2 | 0.00 | 0.00 | 0.00 | 20 | 1020.6 |
| 20260905221707 | 32 | 272 | 8.0 | 11.3 | 0.00 | 0.00 | 0.00 | 20 | 1020.7 |
| 20260905221204 | 33 | 272 | 14.5 | 16.1 | 0.00 | 0.00 | 0.00 | 20 | 1020.6 |
| 20260905220659 | 33 | 232 | 8.0 | 11.3 | 0.00 | 0.00 | 0.00 | 20 | 1020.7 |